createdAt,value
2023-02-24T00:02:00.401Z,8.27
2023-02-24T00:04:29.799Z,8.28
2023-02-24T00:06:57.109Z,8.28
2023-02-24T00:09:26.555Z,8.28
2023-02-24T00:11:57.957Z,8.26
2023-02-24T00:14:28.353Z,8.28
2023-02-24T00:16:55.693Z,8.26
2023-02-24T00:19:25.106Z,8.30
2023-02-24T00:21:54.505Z,8.31
2023-02-24T00:24:22.568Z,8.34
2023-02-24T00:26:54.701Z,8.34
2023-02-24T00:29:26.758Z,8.33
2023-02-24T00:31:59.500Z,8.33
2023-02-24T00:34:28.647Z,8.32
2023-02-24T00:36:57.767Z,8.33
2023-02-24T00:39:33.149Z,8.33
2023-02-24T00:42:06.746Z,8.32
2023-02-24T00:44:36.443Z,8.31
2023-02-24T00:47:05.585Z,8.31
2023-02-24T00:49:36.139Z,8.29
2023-02-24T00:52:04.909Z,8.30
2023-02-24T00:54:31.678Z,8.29
2023-02-24T00:56:58.735Z,8.25
2023-02-24T00:59:26.848Z,8.17
2023-02-24T01:01:55.038Z,8.08
2023-02-24T01:04:22.938Z,8.12
2023-02-24T01:06:52.913Z,8.12
2023-02-24T01:09:21.094Z,8.08
2023-02-24T01:12:22.098Z,8.04
2023-02-24T01:14:51.859Z,8.01
2023-02-24T01:17:20.126Z,7.99
2023-02-24T01:19:49.706Z,7.95
2023-02-24T01:22:18.922Z,7.88
2023-02-24T01:24:46.665Z,7.75
2023-02-24T01:27:15.155Z,7.74
2023-02-24T01:29:42.155Z,7.73
2023-02-24T01:32:17.784Z,7.69
2023-02-24T01:34:46.214Z,7.67
2023-02-24T01:37:16.696Z,7.61
2023-02-24T01:39:47.843Z,7.66
2023-02-24T01:42:17.211Z,7.65
2023-02-24T01:44:44.112Z,7.70
2023-02-24T01:47:12.469Z,7.72
2023-02-24T01:49:41.337Z,7.76
2023-02-24T01:52:15.605Z,7.72
2023-02-24T01:54:50.499Z,7.74
2023-02-24T01:57:21.310Z,7.71
2023-02-24T01:59:53.210Z,7.69
2023-02-24T02:02:23.216Z,7.71
2023-02-24T02:04:57.340Z,7.68
2023-02-24T02:07:28.360Z,7.67
2023-02-24T02:10:00.368Z,7.70
2023-02-24T02:12:28.703Z,7.73
2023-02-24T02:14:58.391Z,7.74
2023-02-24T02:17:44.110Z,7.76
2023-02-24T02:20:28.480Z,7.78
2023-02-24T02:23:14.539Z,7.83
2023-02-24T02:26:07.542Z,7.86
2023-02-24T02:28:34.512Z,7.89
2023-02-24T02:31:20.143Z,7.88
2023-02-24T02:33:56.339Z,7.94
2023-02-24T02:36:33.627Z,7.99
2023-02-24T02:39:34.186Z,8.01
2023-02-24T02:42:14.439Z,8.02
2023-02-24T02:44:56.273Z,8.01
2023-02-24T02:47:35.148Z,8.02
2023-02-24T02:50:10.794Z,8.01
2023-02-24T02:52:45.828Z,8.01
2023-02-24T02:55:24.069Z,8.02
2023-02-24T02:57:55.336Z,8.02
2023-02-24T03:00:29.598Z,8.02
2023-02-24T03:03:03.670Z,8.01
2023-02-24T03:05:37.383Z,7.99
2023-02-24T03:08:11.524Z,7.93
2023-02-24T03:10:42.124Z,7.91
2023-02-24T03:13:13.575Z,7.92
2023-02-24T03:15:45.030Z,7.92
2023-02-24T03:18:19.265Z,7.90
2023-02-24T03:20:52.523Z,7.91
2023-02-24T03:23:27.429Z,7.93
2023-02-24T03:26:17.373Z,7.94
2023-02-24T03:29:18.852Z,7.91
2023-02-24T03:31:55.488Z,7.90
2023-02-24T03:34:31.474Z,7.88
2023-02-24T03:36:58.522Z,7.84
2023-02-24T03:39:26.316Z,7.84
2023-02-24T03:42:20.792Z,7.82
2023-02-24T03:44:48.729Z,7.84
2023-02-24T03:47:17.834Z,7.85
2023-02-24T03:49:45.558Z,7.86
2023-02-24T03:52:49.320Z,7.88
2023-02-24T03:55:59.122Z,7.89
2023-02-24T03:58:46.355Z,7.89
2023-02-24T04:01:42.246Z,7.92
2023-02-24T04:04:20.855Z,7.92
2023-02-24T04:07:06.395Z,7.91
2023-02-24T04:09:41.614Z,7.90
2023-02-24T04:13:04.963Z,7.90
2023-02-24T04:15:44.084Z,7.91
2023-02-24T04:18:22.470Z,7.88
2023-02-24T04:20:53.467Z,7.87
2023-02-24T04:23:31.794Z,7.87
2023-02-24T04:26:01.056Z,7.83
2023-02-24T04:28:31.154Z,7.75
2023-02-24T04:31:06.265Z,7.75
2023-02-24T04:33:35.745Z,7.73
2023-02-24T04:36:02.819Z,7.73
2023-02-24T04:38:33.955Z,7.74
2023-02-24T04:41:01.233Z,7.74
2023-02-24T04:43:29.678Z,7.76
2023-02-24T04:45:57.218Z,7.76
2023-02-24T04:48:24.168Z,7.78
2023-02-24T04:50:55.416Z,7.75
2023-02-24T04:53:28.365Z,7.76
2023-02-24T04:55:56.505Z,7.75
2023-02-24T04:58:28.170Z,7.72
2023-02-24T05:00:56.209Z,7.72
2023-02-24T05:03:28.848Z,7.70
2023-02-24T05:06:03.166Z,7.70
2023-02-24T05:08:31.070Z,7.72
2023-02-24T05:11:00.487Z,7.68
2023-02-24T05:13:31.794Z,7.64
2023-02-24T05:16:06.076Z,7.59
2023-02-24T05:18:37.493Z,7.58
2023-02-24T05:21:28.791Z,7.58
2023-02-24T05:23:56.349Z,7.56
2023-02-24T05:26:27.063Z,7.41
2023-02-24T05:28:56.803Z,7.41
2023-02-24T05:31:27.765Z,7.42
2023-02-24T05:33:59.921Z,7.38
2023-02-24T05:36:29.844Z,7.40
2023-02-24T05:39:08.039Z,7.40
2023-02-24T05:41:42.218Z,7.42
2023-02-24T05:44:14.102Z,7.39
2023-02-24T05:46:45.024Z,7.38
2023-02-24T05:49:24.000Z,7.32
2023-02-24T05:51:56.355Z,7.30
2023-02-24T05:54:36.305Z,7.29
2023-02-24T05:57:12.819Z,7.24
2023-02-24T05:59:44.973Z,7.29
2023-02-24T06:02:15.308Z,7.27
2023-02-24T06:04:54.217Z,7.25
2023-02-24T06:07:25.274Z,7.23
2023-02-24T06:09:58.114Z,7.21
2023-02-24T06:12:31.262Z,7.17
2023-02-24T06:14:58.694Z,7.14
2023-02-24T06:17:26.911Z,7.13
2023-02-24T06:19:54.404Z,7.10
2023-02-24T06:22:24.340Z,7.03
2023-02-24T06:24:54.315Z,7.08
2023-02-24T06:27:25.363Z,7.09
2023-02-24T06:29:54.766Z,7.11
2023-02-24T06:32:25.157Z,7.10
2023-02-24T06:34:54.332Z,7.15
2023-02-24T06:37:23.426Z,7.21
2023-02-24T06:39:51.022Z,7.27
2023-02-24T06:42:18.183Z,7.33
2023-02-24T06:44:45.543Z,7.38
2023-02-24T06:47:16.580Z,7.49
2023-02-24T06:49:43.801Z,7.57
2023-02-24T06:52:12.031Z,7.65
2023-02-24T06:54:39.072Z,7.74
2023-02-24T06:57:06.662Z,7.85
2023-02-24T06:59:34.581Z,7.91
2023-02-24T07:02:03.637Z,8.02
2023-02-24T07:04:31.126Z,8.15
2023-02-24T07:07:03.645Z,8.27
2023-02-24T07:09:32.418Z,8.42
2023-02-24T07:12:02.875Z,8.55
2023-02-24T07:14:31.944Z,8.67
2023-02-24T07:17:00.545Z,8.85
2023-02-24T07:19:32.630Z,9.01
2023-02-24T07:22:03.899Z,9.16
2023-02-24T07:24:36.941Z,9.33
2023-02-24T07:27:09.619Z,9.45
2023-02-24T07:29:38.179Z,9.54
2023-02-24T07:32:09.148Z,9.58
2023-02-24T07:34:40.685Z,9.65
2023-02-24T07:37:09.461Z,9.73
2023-02-24T07:39:39.655Z,9.81
2023-02-24T07:42:08.984Z,9.85
2023-02-24T07:44:46.869Z,9.88
2023-02-24T07:47:16.371Z,9.97
2023-02-24T07:49:44.030Z,9.99
2023-02-24T07:52:11.902Z,10.01
2023-02-24T07:54:39.662Z,10.01
2023-02-24T07:57:14.414Z,10.05
2023-02-24T07:59:47.741Z,10.12
2023-02-24T08:02:16.009Z,10.19
2023-02-24T08:04:50.599Z,10.29
2023-02-24T08:07:25.466Z,10.40
2023-02-24T08:10:12.417Z,10.49
2023-02-24T08:12:43.127Z,10.61
2023-02-24T08:15:17.660Z,10.70
2023-02-24T08:17:47.820Z,10.81
2023-02-24T08:20:15.941Z,10.95
2023-02-24T08:22:47.057Z,11.07
2023-02-24T08:25:19.258Z,11.12
2023-02-24T08:28:08.989Z,11.28
2023-02-24T08:30:40.623Z,11.36
2023-02-24T08:33:10.670Z,11.46
2023-02-24T08:35:45.248Z,11.55
2023-02-24T08:38:18.884Z,11.63
2023-02-24T08:40:55.232Z,11.73
2023-02-24T08:43:36.017Z,11.73
2023-02-24T08:46:34.910Z,11.84
2023-02-24T08:49:02.259Z,11.99
2023-02-24T08:51:36.984Z,12.10
2023-02-24T08:54:11.684Z,12.27
2023-02-24T08:56:44.094Z,12.40
2023-02-24T08:59:29.563Z,12.54
2023-02-24T09:02:18.947Z,12.63
2023-02-24T09:04:48.862Z,12.79
2023-02-24T09:07:22.753Z,12.84
2023-02-24T09:09:50.904Z,13.06
2023-02-24T09:12:29.253Z,13.17
2023-02-24T09:15:04.876Z,13.27
2023-02-24T09:17:50.539Z,13.42
2023-02-24T09:20:39.198Z,13.55
2023-02-24T09:23:08.184Z,13.67
2023-02-24T09:25:44.810Z,13.76
2023-02-24T09:28:20.170Z,13.95
2023-02-24T09:30:53.777Z,14.11
2023-02-24T09:33:24.143Z,14.25
2023-02-24T09:36:11.343Z,14.34
2023-02-24T09:39:02.131Z,14.54
2023-02-24T09:41:32.786Z,14.67
2023-02-24T09:44:18.795Z,14.75
2023-02-24T09:46:56.756Z,14.88
2023-02-24T09:49:47.909Z,15.11
2023-02-24T09:52:18.632Z,15.34
2023-02-24T09:55:09.549Z,15.46
2023-02-24T09:58:06.473Z,15.76
2023-02-24T10:00:35.383Z,15.86
2023-02-24T10:03:43.500Z,15.69
2023-02-24T10:06:24.543Z,15.92
2023-02-24T10:09:27.223Z,15.99
2023-02-24T10:12:04.659Z,16.16
2023-02-24T10:15:32.509Z,16.22
2023-02-24T10:18:27.536Z,16.52
2023-02-24T10:21:48.491Z,16.80
2023-02-24T10:24:37.474Z,16.93
2023-02-24T10:27:25.910Z,17.05
2023-02-24T10:30:06.063Z,17.20
2023-02-24T10:33:06.664Z,17.58
2023-02-24T10:35:34.585Z,17.80
2023-02-24T10:38:06.341Z,17.88
2023-02-24T10:40:47.194Z,17.88
2023-02-24T10:43:20.266Z,18.10
2023-02-24T10:45:48.413Z,18.23
2023-02-24T10:48:41.991Z,18.20
2023-02-24T10:51:30.464Z,18.31
2023-02-24T10:54:34.730Z,18.39
2023-02-24T10:57:31.143Z,18.44
2023-02-24T11:00:19.194Z,18.47
2023-02-24T11:03:08.959Z,18.58
2023-02-24T11:05:39.108Z,18.68
2023-02-24T11:08:15.941Z,18.63
2023-02-24T11:10:58.874Z,18.73
2023-02-24T11:13:45.945Z,18.67
2023-02-24T11:16:51.392Z,18.48
2023-02-24T11:19:18.747Z,18.49
2023-02-24T11:21:45.901Z,18.99
2023-02-24T11:24:19.259Z,19.13
2023-02-24T11:26:46.706Z,19.18
2023-02-24T11:29:34.629Z,19.45
2023-02-24T11:32:01.786Z,19.63
2023-02-24T11:34:50.022Z,19.35
2023-02-24T11:37:32.539Z,19.62
2023-02-24T11:40:11.950Z,19.90
2023-02-24T11:43:05.226Z,20.08
2023-02-24T11:45:52.861Z,20.21
2023-02-24T11:48:43.539Z,20.69
2023-02-24T11:51:19.298Z,20.80
2023-02-24T11:53:49.660Z,20.85
2023-02-24T11:56:29.402Z,20.81
2023-02-24T11:59:12.883Z,20.58
2023-02-24T12:13:39.148Z,19.58
2023-02-24T12:16:21.649Z,19.47
2023-02-24T12:19:20.151Z,19.57
2023-02-24T12:21:59.261Z,19.67
2023-02-24T12:24:26.509Z,19.80
2023-02-24T12:27:30.774Z,19.86
2023-02-24T12:30:06.979Z,19.70
2023-02-24T12:33:00.704Z,19.80
2023-02-24T12:35:40.986Z,20.14
2023-02-24T12:38:34.339Z,19.99
2023-02-24T12:41:17.620Z,20.40
2023-02-24T12:43:51.406Z,20.58
2023-02-24T12:46:47.136Z,20.54
2023-02-24T12:49:30.058Z,20.75
2023-02-24T12:52:10.343Z,20.91
2023-02-24T12:54:55.340Z,21.01
2023-02-24T12:57:55.977Z,21.23
2023-02-24T13:00:43.310Z,21.24
2023-02-24T13:03:31.584Z,21.52
2023-02-24T13:06:18.976Z,21.21
2023-02-24T13:08:56.096Z,21.21
2023-02-24T13:11:36.866Z,21.07
2023-02-24T13:14:35.536Z,21.27
2023-02-24T13:17:11.973Z,21.06
2023-02-24T13:19:40.939Z,21.00
2023-02-24T13:22:20.014Z,20.76
2023-02-24T13:25:10.694Z,20.90
2023-02-24T13:27:56.538Z,21.29
2023-02-24T13:30:42.553Z,21.58
2023-02-24T13:33:18.772Z,21.72
2023-02-24T13:35:48.539Z,22.33
2023-02-24T13:38:36.907Z,22.87
2023-02-24T13:41:29.022Z,23.37
2023-02-24T13:44:02.382Z,24.10
2023-02-24T13:46:45.903Z,24.53
2023-02-24T13:49:42.540Z,25.02
2023-02-24T13:52:34.784Z,25.28
2023-02-24T13:55:40.541Z,25.55
2023-02-24T13:58:41.783Z,25.15
2023-02-24T14:01:15.005Z,26.06
2023-02-24T14:03:46.021Z,25.81
2023-02-24T14:06:26.949Z,26.10
2023-02-24T14:08:58.342Z,25.73
2023-02-24T14:11:29.181Z,26.50
2023-02-24T14:13:58.021Z,26.72
2023-02-24T14:16:36.075Z,26.54
2023-02-24T14:19:04.112Z,26.63
2023-02-24T14:21:34.060Z,26.38
2023-02-24T14:24:11.988Z,25.92
2023-02-24T14:26:49.386Z,25.20
2023-02-24T14:29:23.062Z,24.53
2023-02-24T14:31:52.763Z,23.16
2023-02-24T14:34:27.141Z,22.48
2023-02-24T14:36:57.860Z,21.80
2023-02-24T14:39:26.358Z,21.16
2023-02-24T14:42:11.304Z,20.55
2023-02-24T14:44:47.348Z,19.79
2023-02-24T14:47:16.504Z,19.70
2023-02-24T14:50:00.037Z,19.35
2023-02-24T14:52:42.744Z,18.54
2023-02-24T14:55:18.836Z,17.95
2023-02-24T14:57:59.108Z,18.15
2023-02-24T15:00:33.624Z,18.12
2023-02-24T15:03:23.026Z,17.99
2023-02-24T15:05:57.064Z,17.56
2023-02-24T15:08:35.905Z,17.35
2023-02-24T15:11:23.179Z,17.41
2023-02-24T15:13:55.223Z,17.33
2023-02-24T15:16:28.621Z,17.38
2023-02-24T15:19:01.022Z,17.37
2023-02-24T15:21:31.786Z,17.37
2023-02-24T15:24:23.146Z,17.25
2023-02-24T15:26:59.283Z,16.93
2023-02-24T15:29:29.097Z,17.02
2023-02-24T15:31:58.627Z,16.90
2023-02-24T15:34:31.465Z,16.97
2023-02-24T15:37:03.468Z,16.96
2023-02-24T15:39:33.022Z,16.72
2023-02-24T15:42:17.226Z,16.63
2023-02-24T15:44:58.962Z,16.39
2023-02-24T15:47:29.181Z,16.39
2023-02-24T15:49:56.300Z,16.13
2023-02-24T15:52:27.300Z,16.15
2023-02-24T15:54:59.776Z,16.08
2023-02-24T15:57:29.297Z,15.95
2023-02-24T15:59:56.461Z,15.79
2023-02-24T16:02:24.707Z,15.80
2023-02-24T16:04:52.298Z,15.52
2023-02-24T16:07:26.106Z,15.46
2023-02-24T16:09:55.184Z,15.34
2023-02-24T16:12:28.975Z,15.29
2023-02-24T16:15:02.521Z,15.17
2023-02-24T16:17:41.461Z,15.03
2023-02-24T16:20:12.935Z,14.88
2023-02-24T16:22:40.136Z,14.70
2023-02-24T16:25:08.195Z,14.70
2023-02-24T16:27:36.380Z,14.64
2023-02-24T16:30:03.627Z,14.26
2023-02-24T16:32:30.889Z,13.83
2023-02-24T16:34:58.302Z,13.69
2023-02-24T16:37:30.629Z,13.69
2023-02-24T16:39:59.863Z,13.83
2023-02-24T16:42:27.068Z,13.55
2023-02-24T16:44:54.265Z,13.58
2023-02-24T16:47:24.593Z,13.59
2023-02-24T16:49:55.587Z,13.53
2023-02-24T16:52:25.134Z,13.47
2023-02-24T16:54:52.545Z,13.46
2023-02-24T16:57:19.976Z,13.45
2023-02-24T16:59:47.217Z,13.54
2023-02-24T17:02:22.018Z,13.48
2023-02-24T17:04:49.298Z,13.43
2023-02-24T17:07:19.301Z,13.41
2023-02-24T17:09:46.503Z,13.40
2023-02-24T17:12:15.702Z,13.40
2023-02-24T17:14:42.945Z,13.37
2023-02-24T17:17:11.921Z,13.33
2023-02-24T17:19:39.789Z,13.28
2023-02-24T17:22:07.188Z,13.20
2023-02-24T17:24:34.423Z,13.15
2023-02-24T17:27:01.663Z,13.10
2023-02-24T17:29:28.908Z,13.00
2023-02-24T17:31:57.724Z,12.90
2023-02-24T17:34:25.185Z,12.83
2023-02-24T17:36:52.464Z,12.78
2023-02-24T17:39:19.907Z,12.71
2023-02-24T17:41:47.186Z,12.63
2023-02-24T17:44:14.540Z,12.54
2023-02-24T17:46:41.898Z,12.49
2023-02-24T17:49:09.217Z,12.43
2023-02-24T17:51:36.458Z,12.30
2023-02-24T17:54:03.862Z,12.25
2023-02-24T17:56:31.258Z,12.18
2023-02-24T17:59:01.214Z,12.09
2023-02-24T18:01:28.701Z,12.00
2023-02-24T18:03:57.793Z,11.95
2023-02-24T18:06:25.856Z,11.91
2023-02-24T18:08:53.104Z,11.85
2023-02-24T18:11:21.100Z,11.81
2023-02-24T18:13:51.177Z,11.73
2023-02-24T18:16:18.617Z,11.67
2023-02-24T18:18:45.868Z,11.55
2023-02-24T18:21:13.218Z,11.38
2023-02-24T18:23:40.899Z,11.25
2023-02-24T18:26:11.064Z,11.16
2023-02-24T18:28:39.183Z,11.06
2023-02-24T18:31:16.857Z,11.00
2023-02-24T18:33:45.045Z,10.95
2023-02-24T18:36:12.748Z,10.92
2023-02-24T18:38:40.508Z,10.89
2023-02-24T18:41:10.425Z,10.87
2023-02-24T18:43:38.034Z,10.84
2023-02-24T18:46:07.967Z,10.81
2023-02-24T18:48:35.883Z,10.75
2023-02-24T18:51:03.949Z,10.69
2023-02-24T18:53:37.127Z,10.66
2023-02-24T18:56:22.196Z,10.62
2023-02-24T18:58:50.063Z,10.58
2023-02-24T19:01:37.433Z,10.57
2023-02-24T19:04:06.349Z,10.51
2023-02-24T19:06:34.345Z,10.49
2023-02-24T19:09:03.304Z,10.47
2023-02-24T19:11:30.788Z,10.42
2023-02-24T19:13:59.064Z,10.38
2023-02-24T19:16:26.204Z,10.33
2023-02-24T19:18:56.721Z,10.32
2023-02-24T19:21:25.823Z,10.24
2023-02-24T19:23:53.309Z,10.15
2023-02-24T19:26:23.695Z,10.12
2023-02-24T19:28:51.560Z,10.06
2023-02-24T19:31:21.818Z,10.03
2023-02-24T19:33:53.911Z,10.03
2023-02-24T19:36:21.950Z,9.99
2023-02-24T19:38:49.664Z,9.97
2023-02-24T19:41:16.834Z,9.94
2023-02-24T19:43:44.619Z,9.90
2023-02-24T19:46:14.196Z,9.86
2023-02-24T19:48:41.583Z,9.83
2023-02-24T19:51:11.112Z,9.80
2023-02-24T19:53:38.740Z,9.77
2023-02-24T19:56:06.832Z,9.73
2023-02-24T19:58:34.580Z,9.67
2023-02-24T20:01:13.375Z,9.63
2023-02-24T20:03:42.924Z,9.59
2023-02-24T20:06:22.255Z,9.57
2023-02-24T20:08:49.788Z,9.54
2023-02-24T20:11:18.554Z,9.52
2023-02-24T20:13:46.740Z,9.40
2023-02-24T20:16:19.342Z,9.46
2023-02-24T20:18:46.955Z,9.47
2023-02-24T20:21:14.475Z,9.46
2023-02-24T20:23:42.349Z,9.45
2023-02-24T20:26:16.821Z,9.45
2023-02-24T20:28:45.001Z,9.43
2023-02-24T20:31:15.697Z,9.45
2023-02-24T20:33:43.949Z,9.40
2023-02-24T20:36:14.503Z,9.35
2023-02-24T20:38:41.740Z,9.27
2023-02-24T20:41:08.946Z,9.25
2023-02-24T20:43:36.268Z,9.15
2023-02-24T20:46:25.380Z,9.13
2023-02-24T20:48:58.088Z,9.06
2023-02-24T20:51:26.864Z,9.04
2023-02-24T20:53:58.141Z,8.98
2023-02-24T20:56:33.258Z,8.92
2023-02-24T20:59:07.148Z,8.85
2023-02-24T21:01:35.399Z,8.79
2023-02-24T21:04:02.699Z,8.68
2023-02-24T21:06:30.145Z,8.59
2023-02-24T21:08:58.240Z,8.54
2023-02-24T21:11:26.916Z,8.48
2023-02-24T21:13:56.980Z,8.45
2023-02-24T21:16:25.573Z,8.37
2023-02-24T21:18:53.377Z,8.29
2023-02-24T21:21:21.440Z,8.27
2023-02-24T21:23:49.266Z,8.24
2023-02-24T21:26:17.620Z,8.24
2023-02-24T21:28:44.825Z,8.19
2023-02-24T21:31:17.857Z,8.17
2023-02-24T21:33:45.134Z,8.19
2023-02-24T21:36:14.935Z,8.18
2023-02-24T21:38:42.142Z,8.13
2023-02-24T21:41:16.456Z,8.06
2023-02-24T21:43:44.542Z,8.05
2023-02-24T21:46:13.634Z,8.01
2023-02-24T21:48:42.193Z,8.02
2023-02-24T21:51:10.696Z,8.01
2023-02-24T21:53:39.744Z,8.04
2023-02-24T21:56:19.026Z,8.00
2023-02-24T21:58:52.182Z,8.04
2023-02-24T22:01:26.929Z,8.01
2023-02-24T22:03:58.697Z,8.04
2023-02-24T22:06:31.325Z,8.02
2023-02-24T22:09:00.019Z,7.98
2023-02-24T22:11:27.118Z,8.00
2023-02-24T22:13:54.263Z,7.99
2023-02-24T22:16:24.442Z,8.00
2023-02-24T22:18:53.070Z,7.99
2023-02-24T22:21:21.179Z,7.99
2023-02-24T22:23:49.054Z,7.96
2023-02-24T22:26:17.134Z,7.97
2023-02-24T22:28:47.069Z,7.93
2023-02-24T22:31:17.750Z,7.91
2023-02-24T22:33:45.701Z,7.88
2023-02-24T22:36:18.982Z,7.85
2023-02-24T22:38:46.717Z,7.82
2023-02-24T22:41:19.543Z,7.79
2023-02-24T22:43:47.151Z,7.77
2023-02-24T22:46:16.949Z,7.78
2023-02-24T22:48:45.027Z,7.75
2023-02-24T22:51:14.195Z,7.76
2023-02-24T22:53:44.475Z,7.77
2023-02-24T22:56:13.582Z,7.77
2023-02-24T22:58:41.299Z,7.73
2023-02-24T23:01:22.828Z,7.71
2023-02-24T23:03:50.358Z,7.65
2023-02-24T23:06:20.955Z,7.55
2023-02-24T23:08:50.218Z,7.45
2023-02-24T23:11:28.017Z,7.38
2023-02-24T23:13:57.265Z,7.32
2023-02-24T23:16:27.657Z,7.24
2023-02-24T23:18:58.577Z,7.20
2023-02-24T23:21:47.336Z,7.14
2023-02-24T23:24:16.021Z,7.14
2023-02-24T23:26:47.135Z,7.10
2023-02-24T23:29:17.537Z,7.07
2023-02-24T23:31:45.556Z,7.08
2023-02-24T23:34:13.667Z,6.98
2023-02-24T23:36:43.893Z,6.96
2023-02-24T23:39:14.017Z,6.91
2023-02-24T23:41:41.745Z,6.89
2023-02-24T23:44:09.748Z,6.89
2023-02-24T23:46:37.863Z,6.87
2023-02-24T23:49:05.692Z,6.87
2023-02-24T23:51:47.607Z,6.85
2023-02-24T23:54:17.013Z,6.89
2023-02-24T23:56:44.327Z,6.86
2023-02-24T23:59:12.140Z,6.85
